sensor_id;sensor_type;location;lat;lon;timestamp;pressure;altitude;pressure_sealevel;temperature;humidity
63019;BME280;49105;46.046;10.760;2023-01-04T00:00:29;96966.53;;;2.82;79.42
63019;BME280;49105;46.046;10.760;2023-01-04T00:02:54;96961.53;;;2.87;79.39
63019;BME280;49105;46.046;10.760;2023-01-04T00:05:20;96962.59;;;2.93;79.31
63019;BME280;49105;46.046;10.760;2023-01-04T00:07:45;96966.25;;;2.98;79.15
63019;BME280;49105;46.046;10.760;2023-01-04T00:10:11;96962.44;;;3.01;79.04
63019;BME280;49105;46.046;10.760;2023-01-04T00:12:36;96964.66;;;3.04;79.01
63019;BME280;49105;46.046;10.760;2023-01-04T00:15:02;96975.38;;;3.09;78.88
63019;BME280;49105;46.046;10.760;2023-01-04T00:17:28;96966.31;;;3.12;78.72
63019;BME280;49105;46.046;10.760;2023-01-04T00:19:53;96971.13;;;3.08;78.62
63019;BME280;49105;46.046;10.760;2023-01-04T00:22:19;96956.88;;;3.11;78.91
63019;BME280;49105;46.046;10.760;2023-01-04T00:24:44;96956.88;;;3.11;78.77
63019;BME280;49105;46.046;10.760;2023-01-04T00:27:10;96966.47;;;3.04;78.98
63019;BME280;49105;46.046;10.760;2023-01-04T00:29:35;96961.38;;;2.95;78.97
63019;BME280;49105;46.046;10.760;2023-01-04T00:32:00;96971.25;;;2.93;79.14
63019;BME280;49105;46.046;10.760;2023-01-04T00:34:26;96968.19;;;2.90;78.94
63019;BME280;49105;46.046;10.760;2023-01-04T00:36:51;96975.63;;;2.86;78.82
63019;BME280;49105;46.046;10.760;2023-01-04T00:39:17;96966.16;;;2.85;79.28
63019;BME280;49105;46.046;10.760;2023-01-04T00:41:47;96973.00;;;2.86;79.16
63019;BME280;49105;46.046;10.760;2023-01-04T00:44:13;96964.88;;;2.74;78.88
63019;BME280;49105;46.046;10.760;2023-01-04T00:46:40;96961.16;;;2.62;79.21
63019;BME280;49105;46.046;10.760;2023-01-04T00:49:07;96957.53;;;2.63;79.43
63019;BME280;49105;46.046;10.760;2023-01-04T00:51:34;96962.97;;;2.62;79.25
63019;BME280;49105;46.046;10.760;2023-01-04T00:54:01;96968.75;;;2.57;78.98
63019;BME280;49105;46.046;10.760;2023-01-04T00:56:28;96968.84;;;2.42;79.20
63019;BME280;49105;46.046;10.760;2023-01-04T00:58:55;96965.41;;;2.42;79.38
63019;BME280;49105;46.046;10.760;2023-01-04T01:01:21;96968.34;;;2.54;79.49
63019;BME280;49105;46.046;10.760;2023-01-04T01:03:47;96970.81;;;2.62;78.96
63019;BME280;49105;46.046;10.760;2023-01-04T01:06:12;96972.84;;;2.66;79.19
63019;BME280;49105;46.046;10.760;2023-01-04T01:08:38;96971.25;;;2.65;78.83
63019;BME280;49105;46.046;10.760;2023-01-04T01:11:06;96981.91;;;2.64;78.94
63019;BME280;49105;46.046;10.760;2023-01-04T01:13:33;96972.66;;;2.40;78.99
63019;BME280;49105;46.046;10.760;2023-01-04T01:16:19;96975.69;;;2.22;78.94
63019;BME280;49105;46.046;10.760;2023-01-04T01:18:45;96981.59;;;2.09;79.41
63019;BME280;49105;46.046;10.760;2023-01-04T01:21:14;96975.56;;;2.09;79.53
63019;BME280;49105;46.046;10.760;2023-01-04T01:23:40;96987.09;;;2.14;79.76
63019;BME280;49105;46.046;10.760;2023-01-04T01:26:07;96980.91;;;2.22;79.84
63019;BME280;49105;46.046;10.760;2023-01-04T01:28:35;96979.63;;;2.33;79.38
63019;BME280;49105;46.046;10.760;2023-01-04T01:31:09;96976.00;;;2.34;79.18
63019;BME280;49105;46.046;10.760;2023-01-04T01:33:36;96977.00;;;2.33;78.97
63019;BME280;49105;46.046;10.760;2023-01-04T01:36:03;96973.22;;;2.35;79.14
63019;BME280;49105;46.046;10.760;2023-01-04T01:38:28;96978.47;;;2.42;79.11
63019;BME280;49105;46.046;10.760;2023-01-04T01:40:54;96983.53;;;2.43;79.06
63019;BME280;49105;46.046;10.760;2023-01-04T01:43:22;96980.72;;;2.45;79.19
63019;BME280;49105;46.046;10.760;2023-01-04T01:45:55;96979.47;;;2.41;78.87
63019;BME280;49105;46.046;10.760;2023-01-04T01:48:25;96984.53;;;2.21;78.74
63019;BME280;49105;46.046;10.760;2023-01-04T01:50:55;96985.00;;;2.10;79.52
63019;BME280;49105;46.046;10.760;2023-01-04T01:53:24;96984.41;;;2.08;79.38
63019;BME280;49105;46.046;10.760;2023-01-04T01:55:51;96988.81;;;2.07;78.87
63019;BME280;49105;46.046;10.760;2023-01-04T01:58:26;96989.06;;;2.12;79.45
63019;BME280;49105;46.046;10.760;2023-01-04T02:00:53;96984.28;;;2.16;79.66
63019;BME280;49105;46.046;10.760;2023-01-04T02:03:21;96987.13;;;2.21;79.15
63019;BME280;49105;46.046;10.760;2023-01-04T02:05:52;96988.34;;;2.18;79.11
63019;BME280;49105;46.046;10.760;2023-01-04T02:08:21;96991.22;;;2.09;79.23
63019;BME280;49105;46.046;10.760;2023-01-04T02:10:48;96988.56;;;2.02;79.13
63019;BME280;49105;46.046;10.760;2023-01-04T02:13:20;96988.13;;;1.98;79.40
63019;BME280;49105;46.046;10.760;2023-01-04T02:16:09;96988.72;;;2.01;79.36
63019;BME280;49105;46.046;10.760;2023-01-04T02:18:48;96983.94;;;2.04;79.10
63019;BME280;49105;46.046;10.760;2023-01-04T02:21:24;96987.63;;;2.10;79.64
63019;BME280;49105;46.046;10.760;2023-01-04T02:27:05;96983.72;;;2.20;78.99
63019;BME280;49105;46.046;10.760;2023-01-04T02:29:55;96991.63;;;2.27;78.92
63019;BME280;49105;46.046;10.760;2023-01-04T02:38:22;96984.84;;;2.11;78.94
63019;BME280;49105;46.046;10.760;2023-01-04T02:43:29;96980.66;;;2.17;79.22
63019;BME280;49105;46.046;10.760;2023-01-04T02:46:23;96979.28;;;2.21;79.09
63019;BME280;49105;46.046;10.760;2023-01-04T02:48:50;96976.94;;;2.26;78.75
63019;BME280;49105;46.046;10.760;2023-01-04T02:51:36;96980.53;;;2.25;78.73
63019;BME280;49105;46.046;10.760;2023-01-04T02:54:07;96974.88;;;2.21;78.94
63019;BME280;49105;46.046;10.760;2023-01-04T03:10:40;96976.69;;;2.21;79.22
63019;BME280;49105;46.046;10.760;2023-01-04T03:13:17;96976.50;;;2.22;78.91
63019;BME280;49105;46.046;10.760;2023-01-04T03:15:45;96970.22;;;1.95;78.62
63019;BME280;49105;46.046;10.760;2023-01-04T03:18:17;96977.75;;;1.69;79.25
63019;BME280;49105;46.046;10.760;2023-01-04T03:20:44;96972.56;;;1.54;79.12
63019;BME280;49105;46.046;10.760;2023-01-04T03:23:13;96980.59;;;1.53;79.46
63019;BME280;49105;46.046;10.760;2023-01-04T03:26:02;96984.25;;;1.58;79.59
63019;BME280;49105;46.046;10.760;2023-01-04T03:28:49;96984.34;;;1.65;79.70
63019;BME280;49105;46.046;10.760;2023-01-04T03:32:03;96983.59;;;1.71;79.29
63019;BME280;49105;46.046;10.760;2023-01-04T03:34:49;96980.53;;;1.82;79.40
63019;BME280;49105;46.046;10.760;2023-01-04T03:40:59;96971.84;;;1.45;79.13
63019;BME280;49105;46.046;10.760;2023-01-04T03:43:52;96973.22;;;1.41;79.42
63019;BME280;49105;46.046;10.760;2023-01-04T03:46:46;96977.34;;;1.51;79.20
63019;BME280;49105;46.046;10.760;2023-01-04T03:49:55;96977.34;;;1.51;79.28
63019;BME280;49105;46.046;10.760;2023-01-04T03:52:26;96982.19;;;1.54;78.98
63019;BME280;49105;46.046;10.760;2023-01-04T03:54:55;96978.22;;;1.58;79.50
63019;BME280;49105;46.046;10.760;2023-01-04T03:57:22;96975.50;;;1.66;79.03
63019;BME280;49105;46.046;10.760;2023-01-04T03:59:54;96966.22;;;1.78;78.93
63019;BME280;49105;46.046;10.760;2023-01-04T04:02:28;96966.91;;;1.87;78.82
63019;BME280;49105;46.046;10.760;2023-01-04T04:04:55;96964.50;;;1.85;78.48
63019;BME280;49105;46.046;10.760;2023-01-04T04:07:39;96954.09;;;1.56;79.05
63019;BME280;49105;46.046;10.760;2023-01-04T04:10:23;96952.94;;;1.43;79.14
63019;BME280;49105;46.046;10.760;2023-01-04T04:12:48;96944.41;;;1.49;79.16
63019;BME280;49105;46.046;10.760;2023-01-04T04:15:14;96956.81;;;1.47;79.33
63019;BME280;49105;46.046;10.760;2023-01-04T04:17:40;96951.00;;;1.45;79.03
63019;BME280;49105;46.046;10.760;2023-01-04T04:20:06;96958.25;;;1.50;79.25
63019;BME280;49105;46.046;10.760;2023-01-04T04:22:32;96953.66;;;1.52;79.35
63019;BME280;49105;46.046;10.760;2023-01-04T04:24:57;96954.75;;;1.58;79.10
63019;BME280;49105;46.046;10.760;2023-01-04T04:27:23;96950.13;;;1.60;79.44
63019;BME280;49105;46.046;10.760;2023-01-04T04:29:48;96943.19;;;1.67;79.52
63019;BME280;49105;46.046;10.760;2023-01-04T04:32:14;96947.13;;;1.78;78.79
63019;BME280;49105;46.046;10.760;2023-01-04T04:34:39;96952.63;;;1.68;79.31
63019;BME280;49105;46.046;10.760;2023-01-04T04:37:05;96953.50;;;1.54;78.66
63019;BME280;49105;46.046;10.760;2023-01-04T04:39:30;96949.09;;;1.39;79.01
63019;BME280;49105;46.046;10.760;2023-01-04T04:41:56;96944.25;;;1.36;78.96
63019;BME280;49105;46.046;10.760;2023-01-04T04:44:21;96937.69;;;1.26;78.66
63019;BME280;49105;46.046;10.760;2023-01-04T04:46:47;96942.56;;;1.14;79.49
63019;BME280;49105;46.046;10.760;2023-01-04T04:49:14;96942.81;;;1.19;79.63
63019;BME280;49105;46.046;10.760;2023-01-04T04:51:41;96946.41;;;1.33;78.94
63019;BME280;49105;46.046;10.760;2023-01-04T04:54:08;96953.69;;;1.37;79.36
63019;BME280;49105;46.046;10.760;2023-01-04T04:56:34;96949.09;;;1.39;78.94
63019;BME280;49105;46.046;10.760;2023-01-04T04:59:03;96960.00;;;1.28;79.10
63019;BME280;49105;46.046;10.760;2023-01-04T05:01:29;96960.09;;;1.20;79.31
63019;BME280;49105;46.046;10.760;2023-01-04T05:03:55;96964.06;;;1.16;79.16
63019;BME280;49105;46.046;10.760;2023-01-04T05:06:20;96972.50;;;1.18;79.18
63019;BME280;49105;46.046;10.760;2023-01-04T05:08:46;96967.53;;;1.23;79.34
63019;BME280;49105;46.046;10.760;2023-01-04T05:11:12;96971.41;;;1.27;79.08
63019;BME280;49105;46.046;10.760;2023-01-04T05:13:38;96969.91;;;1.33;78.84
63019;BME280;49105;46.046;10.760;2023-01-04T05:16:04;96968.91;;;1.34;78.98
63019;BME280;49105;46.046;10.760;2023-01-04T05:18:30;96974.41;;;1.24;79.39
63019;BME280;49105;46.046;10.760;2023-01-04T05:20:56;96975.28;;;1.16;79.21
63019;BME280;49105;46.046;10.760;2023-01-04T05:23:22;96963.59;;;1.12;78.86
63019;BME280;49105;46.046;10.760;2023-01-04T05:25:53;96974.84;;;1.13;79.50
63019;BME280;49105;46.046;10.760;2023-01-04T05:28:20;96981.31;;;1.17;79.18
63019;BME280;49105;46.046;10.760;2023-01-04T05:30:48;96977.00;;;1.24;78.89
63019;BME280;49105;46.046;10.760;2023-01-04T05:33:23;96971.69;;;1.32;79.30
63019;BME280;49105;46.046;10.760;2023-01-04T05:35:50;96962.78;;;1.41;78.97
63019;BME280;49105;46.046;10.760;2023-01-04T05:38:16;96970.84;;;1.46;79.02
63019;BME280;49105;46.046;10.760;2023-01-04T05:40:41;96966.91;;;1.51;78.88
63019;BME280;49105;46.046;10.760;2023-01-04T05:43:07;96978.06;;;1.30;78.81
63019;BME280;49105;46.046;10.760;2023-01-04T05:45:32;96982.84;;;1.11;79.19
63019;BME280;49105;46.046;10.760;2023-01-04T05:47:58;96993.53;;;1.02;78.87
63019;BME280;49105;46.046;10.760;2023-01-04T05:50:23;96991.09;;;1.00;78.97
63019;BME280;49105;46.046;10.760;2023-01-04T05:52:49;96988.66;;;0.98;79.15
63019;BME280;49105;46.046;10.760;2023-01-04T05:55:15;96984.38;;;1.06;79.07
63019;BME280;49105;46.046;10.760;2023-01-04T05:57:41;96989.03;;;1.10;79.00
63019;BME280;49105;46.046;10.760;2023-01-04T06:00:08;96993.72;;;1.15;79.09
63019;BME280;49105;46.046;10.760;2023-01-04T06:02:34;96988.34;;;1.16;78.56
63019;BME280;49105;46.046;10.760;2023-01-04T06:04:59;96998.84;;;1.08;79.02
63019;BME280;49105;46.046;10.760;2023-01-04T06:07:26;96992.09;;;0.99;78.90
63019;BME280;49105;46.046;10.760;2023-01-04T06:09:52;96997.47;;;0.97;79.19
63019;BME280;49105;46.046;10.760;2023-01-04T06:12:17;96992.72;;;1.01;79.08
63019;BME280;49105;46.046;10.760;2023-01-04T06:14:43;96997.13;;;1.01;79.26
63019;BME280;49105;46.046;10.760;2023-01-04T06:17:08;97000.72;;;0.99;79.32
63019;BME280;49105;46.046;10.760;2023-01-04T06:19:34;96994.72;;;0.99;79.06
63019;BME280;49105;46.046;10.760;2023-01-04T06:21:59;97002.00;;;1.04;79.35
63019;BME280;49105;46.046;10.760;2023-01-04T06:24:24;96987.78;;;1.06;78.92
63019;BME280;49105;46.046;10.760;2023-01-04T06:26:50;96992.28;;;0.97;79.19
63019;BME280;49105;46.046;10.760;2023-01-04T06:29:16;96992.63;;;0.94;78.93
63019;BME280;49105;46.046;10.760;2023-01-04T06:31:41;96996.31;;;1.00;78.98
63019;BME280;49105;46.046;10.760;2023-01-04T06:34:10;96986.50;;;1.02;79.28
63019;BME280;49105;46.046;10.760;2023-01-04T06:36:35;96993.38;;;1.03;78.91
63019;BME280;49105;46.046;10.760;2023-01-04T06:39:01;96999.19;;;1.05;79.05
63019;BME280;49105;46.046;10.760;2023-01-04T06:41:26;97002.00;;;1.04;79.10
63019;BME280;49105;46.046;10.760;2023-01-04T06:43:52;97011.16;;;0.99;78.38
63019;BME280;49105;46.046;10.760;2023-01-04T06:46:18;97005.03;;;0.92;78.51
63019;BME280;49105;46.046;10.760;2023-01-04T06:48:43;97003.41;;;0.91;78.79
63019;BME280;49105;46.046;10.760;2023-01-04T06:51:09;97008.00;;;0.89;79.12
63019;BME280;49105;46.046;10.760;2023-01-04T06:53:34;97008.44;;;0.93;79.40
63019;BME280;49105;46.046;10.760;2023-01-04T06:56:00;97005.50;;;0.96;78.77
63019;BME280;49105;46.046;10.760;2023-01-04T06:58:26;96994.59;;;0.92;78.82
63019;BME280;49105;46.046;10.760;2023-01-04T07:00:52;96999.63;;;0.94;78.81
63019;BME280;49105;46.046;10.760;2023-01-04T07:03:18;97003.50;;;0.98;78.93
63019;BME280;49105;46.046;10.760;2023-01-04T07:05:44;96995.97;;;1.03;79.27
63019;BME280;49105;46.046;10.760;2023-01-04T07:08:10;97012.66;;;0.94;78.66
63019;BME280;49105;46.046;10.760;2023-01-04T07:10:36;97005.66;;;0.94;79.16
63019;BME280;49105;46.046;10.760;2023-01-04T07:13:02;97013.94;;;0.98;78.55
63019;BME280;49105;46.046;10.760;2023-01-04T07:15:27;97013.03;;;1.06;78.38
63019;BME280;49105;46.046;10.760;2023-01-04T07:17:53;97014.50;;;1.08;78.69
63019;BME280;49105;46.046;10.760;2023-01-04T07:20:19;97022.81;;;0.89;78.44
63019;BME280;49105;46.046;10.760;2023-01-04T07:22:44;97030.72;;;0.81;79.21
63019;BME280;49105;46.046;10.760;2023-01-04T07:25:10;97034.53;;;0.70;78.75
63019;BME280;49105;46.046;10.760;2023-01-04T07:27:35;97048.50;;;0.77;79.40
63019;BME280;49105;46.046;10.760;2023-01-04T07:30:00;97044.72;;;0.80;79.08
63019;BME280;49105;46.046;10.760;2023-01-04T07:32:26;97048.41;;;0.85;79.25
63019;BME280;49105;46.046;10.760;2023-01-04T07:34:51;97050.03;;;0.86;78.70
63019;BME280;49105;46.046;10.760;2023-01-04T07:37:17;97041.88;;;0.89;78.98
63019;BME280;49105;46.046;10.760;2023-01-04T07:39:42;97040.88;;;0.90;78.93
63019;BME280;49105;46.046;10.760;2023-01-04T07:42:09;97037.31;;;0.91;79.02
63019;BME280;49105;46.046;10.760;2023-01-04T07:44:34;97037.56;;;0.96;79.23
63019;BME280;49105;46.046;10.760;2023-01-04T07:47:01;97027.75;;;0.98;78.61
63019;BME280;49105;46.046;10.760;2023-01-04T07:49:26;97029.69;;;1.05;78.92
63019;BME280;49105;46.046;10.760;2023-01-04T07:51:52;97031.94;;;1.08;78.68
63019;BME280;49105;46.046;10.760;2023-01-04T07:54:18;97034.53;;;1.08;78.77
63019;BME280;49105;46.046;10.760;2023-01-04T07:56:44;97036.78;;;1.11;78.98
63019;BME280;49105;46.046;10.760;2023-01-04T07:59:11;97036.44;;;1.14;78.88
63019;BME280;49105;46.046;10.760;2023-01-04T08:01:37;97035.00;;;1.11;78.49
63019;BME280;49105;46.046;10.760;2023-01-04T08:04:07;97036.50;;;1.06;78.56
63019;BME280;49105;46.046;10.760;2023-01-04T08:06:34;97035.88;;;1.04;79.35
63019;BME280;49105;46.046;10.760;2023-01-04T08:09:00;97038.75;;;1.09;78.95
63019;BME280;49105;46.046;10.760;2023-01-04T08:11:26;97035.50;;;1.07;78.09
63019;BME280;49105;46.046;10.760;2023-01-04T08:13:51;97043.06;;;1.02;78.54
63019;BME280;49105;46.046;10.760;2023-01-04T08:16:20;97048.28;;;1.02;78.57
63019;BME280;49105;46.046;10.760;2023-01-04T08:18:47;97048.94;;;1.04;78.67
63019;BME280;49105;46.046;10.760;2023-01-04T08:21:16;97049.00;;;1.10;78.97
63019;BME280;49105;46.046;10.760;2023-01-04T08:23:41;97046.22;;;1.27;78.60
63019;BME280;49105;46.046;10.760;2023-01-04T08:26:10;97049.66;;;1.27;78.64
63019;BME280;49105;46.046;10.760;2023-01-04T08:28:36;97048.38;;;1.23;78.21
63019;BME280;49105;46.046;10.760;2023-01-04T08:31:07;97039.13;;;1.20;78.53
63019;BME280;49105;46.046;10.760;2023-01-04T08:33:34;97044.97;;;1.22;78.18
63019;BME280;49105;46.046;10.760;2023-01-04T08:36:08;97035.53;;;1.21;78.45
63019;BME280;49105;46.046;10.760;2023-01-04T08:38:34;97030.22;;;1.15;78.15
63019;BME280;49105;46.046;10.760;2023-01-04T08:40:59;97036.31;;;0.92;78.18
63019;BME280;49105;46.046;10.760;2023-01-04T08:43:24;97045.00;;;0.85;78.58
63019;BME280;49105;46.046;10.760;2023-01-04T08:45:50;97046.28;;;0.89;78.83
63019;BME280;49105;46.046;10.760;2023-01-04T08:48:15;97040.72;;;0.92;78.69
63019;BME280;49105;46.046;10.760;2023-01-04T08:50:41;97041.97;;;0.96;78.38
63019;BME280;49105;46.046;10.760;2023-01-04T08:53:06;97062.66;;;0.97;78.84
63019;BME280;49105;46.046;10.760;2023-01-04T08:55:31;97042.91;;;1.03;78.36
63019;BME280;49105;46.046;10.760;2023-01-04T08:57:59;97048.38;;;1.08;79.11
63019;BME280;49105;46.046;10.760;2023-01-04T09:00:25;97040.38;;;1.10;78.45
63019;BME280;49105;46.046;10.760;2023-01-04T09:02:50;97047.84;;;1.13;78.43
63019;BME280;49105;46.046;10.760;2023-01-04T09:05:17;97048.72;;;1.05;78.48
63019;BME280;49105;46.046;10.760;2023-01-04T09:07:42;97053.50;;;1.02;78.64
63019;BME280;49105;46.046;10.760;2023-01-04T09:10:08;97048.13;;;1.03;78.85
63019;BME280;49105;46.046;10.760;2023-01-04T09:12:34;97041.25;;;1.02;78.96
63019;BME280;49105;46.046;10.760;2023-01-04T09:14:59;97045.78;;;1.08;78.61
63019;BME280;49105;46.046;10.760;2023-01-04T09:17:25;97037.63;;;1.11;78.74
63019;BME280;49105;46.046;10.760;2023-01-04T09:19:50;97043.44;;;1.13;78.65
63019;BME280;49105;46.046;10.760;2023-01-04T09:22:16;97030.13;;;1.08;78.72
63019;BME280;49105;46.046;10.760;2023-01-04T09:24:41;97030.59;;;1.12;78.66
63019;BME280;49105;46.046;10.760;2023-01-04T09:27:07;97028.59;;;1.14;78.61
63019;BME280;49105;46.046;10.760;2023-01-04T09:29:32;97045.59;;;1.10;78.65
63019;BME280;49105;46.046;10.760;2023-01-04T09:31:57;97040.44;;;1.02;78.69
63019;BME280;49105;46.046;10.760;2023-01-04T09:34:23;97035.59;;;0.98;78.69
63019;BME280;49105;46.046;10.760;2023-01-04T09:36:48;97031.81;;;1.01;79.34
63019;BME280;49105;46.046;10.760;2023-01-04T09:39:15;97021.22;;;1.03;79.09
63019;BME280;49105;46.046;10.760;2023-01-04T09:41:48;97022.47;;;1.07;78.62
63019;BME280;49105;46.046;10.760;2023-01-04T09:44:33;97009.91;;;1.10;78.69
63019;BME280;49105;46.046;10.760;2023-01-04T09:47:05;97013.22;;;1.19;78.69
63019;BME280;49105;46.046;10.760;2023-01-04T09:52:17;97033.03;;;1.28;78.60
63019;BME280;49105;46.046;10.760;2023-01-04T09:57:24;97020.22;;;1.48;78.67
63019;BME280;49105;46.046;10.760;2023-01-04T09:59:55;97009.44;;;1.66;79.08
63019;BME280;49105;46.046;10.760;2023-01-04T10:02:32;97000.03;;;1.86;78.77
63019;BME280;49105;46.046;10.760;2023-01-04T10:05:04;97005.03;;;2.03;78.56
63019;BME280;49105;46.046;10.760;2023-01-04T10:07:31;97004.28;;;2.09;78.00
63019;BME280;49105;46.046;10.760;2023-01-04T10:09:58;97002.88;;;2.06;78.06
63019;BME280;49105;46.046;10.760;2023-01-04T10:26:09;96979.38;;;2.77;78.06
63019;BME280;49105;46.046;10.760;2023-01-04T10:34:05;96956.88;;;2.83;78.01
63019;BME280;49105;46.046;10.760;2023-01-04T10:36:40;96946.41;;;2.76;77.81
63019;BME280;49105;46.046;10.760;2023-01-04T10:39:15;96944.53;;;2.70;78.20
63019;BME280;49105;46.046;10.760;2023-01-04T10:41:52;96948.91;;;2.63;77.82
63019;BME280;49105;46.046;10.760;2023-01-04T10:44:52;96941.75;;;2.50;78.02
63019;BME280;49105;46.046;10.760;2023-01-04T10:47:28;96933.09;;;2.43;78.13
63019;BME280;49105;46.046;10.760;2023-01-04T10:49:58;96917.63;;;2.48;77.81
63019;BME280;49105;46.046;10.760;2023-01-04T10:52:42;96906.81;;;2.51;78.03
63019;BME280;49105;46.046;10.760;2023-01-04T10:55:33;96907.75;;;2.43;77.87
63019;BME280;49105;46.046;10.760;2023-01-04T10:58:02;96903.63;;;2.28;77.78
63019;BME280;49105;46.046;10.760;2023-01-04T11:00:40;96903.91;;;2.18;77.89
63019;BME280;49105;46.046;10.760;2023-01-04T11:03:27;96896.91;;;2.18;77.68
63019;BME280;49105;46.046;10.760;2023-01-04T11:06:00;96898.97;;;2.23;78.01
63019;BME280;49105;46.046;10.760;2023-01-04T11:08:33;96898.97;;;2.23;77.97
63019;BME280;49105;46.046;10.760;2023-01-04T11:11:54;96892.09;;;2.22;77.91
63019;BME280;49105;46.046;10.760;2023-01-04T11:13:53;96886.50;;;2.25;77.97
63019;BME280;49105;46.046;10.760;2023-01-04T11:16:19;96881.72;;;2.29;78.06
63019;BME280;49105;46.046;10.760;2023-01-04T11:18:46;96873.00;;;2.43;78.26
63019;BME280;49105;46.046;10.760;2023-01-04T11:21:15;96870.09;;;2.66;78.15
63019;BME280;49105;46.046;10.760;2023-01-04T11:23:42;96870.66;;;2.89;78.11
63019;BME280;49105;46.046;10.760;2023-01-04T11:26:20;96866.31;;;3.10;77.68
63019;BME280;49105;46.046;10.760;2023-01-04T11:29:06;96870.81;;;3.29;77.45
63019;BME280;49105;46.046;10.760;2023-01-04T11:31:56;96858.78;;;3.41;77.39
63019;BME280;49105;46.046;10.760;2023-01-04T11:34:45;96866.06;;;3.53;77.11
63019;BME280;49105;46.046;10.760;2023-01-04T11:39:48;96854.44;;;3.82;77.38
63019;BME280;49105;46.046;10.760;2023-01-04T11:42:19;96851.03;;;4.01;77.09
63019;BME280;49105;46.046;10.760;2023-01-04T11:44:56;96849.59;;;3.98;76.68
63019;BME280;49105;46.046;10.760;2023-01-04T11:47:23;96845.78;;;3.94;76.60
63019;BME280;49105;46.046;10.760;2023-01-04T11:49:50;96836.09;;;3.95;76.70
63019;BME280;49105;46.046;10.760;2023-01-04T11:52:28;96845.19;;;3.92;76.71
63019;BME280;49105;46.046;10.760;2023-01-04T11:54:55;96845.38;;;3.97;76.87
63019;BME280;49105;46.046;10.760;2023-01-04T11:57:20;96846.19;;;4.05;76.97
63019;BME280;49105;46.046;10.760;2023-01-04T12:00:13;96832.50;;;4.16;76.94
63019;BME280;49105;46.046;10.760;2023-01-04T12:02:38;96821.59;;;4.26;76.80
63019;BME280;49105;46.046;10.760;2023-01-04T12:05:21;96823.81;;;4.42;76.65
63019;BME280;49105;46.046;10.760;2023-01-04T12:07:46;96811.47;;;4.56;76.42
63019;BME280;49105;46.046;10.760;2023-01-04T12:10:23;96803.78;;;4.67;76.41
63019;BME280;49105;46.046;10.760;2023-01-04T12:12:51;96807.19;;;4.75;76.37
63019;BME280;49105;46.046;10.760;2023-01-04T12:18:21;96789.78;;;4.87;76.56
63019;BME280;49105;46.046;10.760;2023-01-04T12:20:50;96783.72;;;4.93;76.36
63019;BME280;49105;46.046;10.760;2023-01-04T12:23:15;96779.88;;;4.95;76.35
63019;BME280;49105;46.046;10.760;2023-01-04T12:25:47;96776.22;;;5.03;76.19
63019;BME280;49105;46.046;10.760;2023-01-04T12:28:42;96773.94;;;5.13;76.34
63019;BME280;49105;46.046;10.760;2023-01-04T12:33:47;96771.44;;;5.25;75.79
63019;BME280;49105;46.046;10.760;2023-01-04T12:36:17;96766.81;;;5.27;76.07
63019;BME280;49105;46.046;10.760;2023-01-04T12:39:03;96763.53;;;5.32;75.67
63019;BME280;49105;46.046;10.760;2023-01-04T12:43:57;96756.06;;;5.35;75.56
63019;BME280;49105;46.046;10.760;2023-01-04T12:49:43;96741.38;;;5.21;75.82
63019;BME280;49105;46.046;10.760;2023-01-04T12:54:52;96735.16;;;5.47;76.24
63019;BME280;49105;46.046;10.760;2023-01-04T13:00:21;96731.28;;;5.81;75.56
63019;BME280;49105;46.046;10.760;2023-01-04T13:05:50;96734.59;;;5.95;75.35
63019;BME280;49105;46.046;10.760;2023-01-04T13:08:18;96730.19;;;5.89;75.27
63019;BME280;49105;46.046;10.760;2023-01-04T13:10:51;96724.13;;;5.88;75.61
63019;BME280;49105;46.046;10.760;2023-01-04T13:19:03;96716.69;;;5.85;75.14
63019;BME280;49105;46.046;10.760;2023-01-04T13:21:44;96707.78;;;5.86;75.27
63019;BME280;49105;46.046;10.760;2023-01-04T13:26:46;96708.56;;;5.93;74.81
63019;BME280;49105;46.046;10.760;2023-01-04T13:32:10;96719.97;;;6.06;74.84
63019;BME280;49105;46.046;10.760;2023-01-04T13:34:54;96706.16;;;6.10;74.80
63019;BME280;49105;46.046;10.760;2023-01-04T13:42:47;96701.16;;;6.27;74.72
63019;BME280;49105;46.046;10.760;2023-01-04T13:47:40;96699.41;;;6.39;74.20
63019;BME280;49105;46.046;10.760;2023-01-04T13:50:22;96693.69;;;6.42;73.81
63019;BME280;49105;46.046;10.760;2023-01-04T13:52:49;96694.06;;;6.46;74.03
63019;BME280;49105;46.046;10.760;2023-01-04T13:55:35;96693.59;;;6.49;74.27
63019;BME280;49105;46.046;10.760;2023-01-04T13:58:03;96684.19;;;6.41;73.95
63019;BME280;49105;46.046;10.760;2023-01-04T14:00:34;96682.69;;;6.34;74.07
63019;BME280;49105;46.046;10.760;2023-01-04T14:03:24;96674.19;;;6.32;74.17
63019;BME280;49105;46.046;10.760;2023-01-04T14:05:52;96675.78;;;6.33;74.32
63019;BME280;49105;46.046;10.760;2023-01-04T14:10:56;96673.34;;;6.38;73.71
63019;BME280;49105;46.046;10.760;2023-01-04T14:13:22;96667.59;;;6.41;74.06
63019;BME280;49105;46.046;10.760;2023-01-04T14:16:11;96670.03;;;6.42;74.06
63019;BME280;49105;46.046;10.760;2023-01-04T14:18:37;96674.25;;;6.43;73.81
63019;BME280;49105;46.046;10.760;2023-01-04T14:21:03;96663.97;;;6.42;73.95
63019;BME280;49105;46.046;10.760;2023-01-04T14:23:33;96669.44;;;6.40;73.87
63019;BME280;49105;46.046;10.760;2023-01-04T14:26:00;96671.13;;;6.35;73.92
63019;BME280;49105;46.046;10.760;2023-01-04T14:28:35;96671.63;;;6.25;74.09
63019;BME280;49105;46.046;10.760;2023-01-04T14:36:29;96674.97;;;5.95;74.60
63019;BME280;49105;46.046;10.760;2023-01-04T14:41:42;96671.16;;;5.91;74.49
63019;BME280;49105;46.046;10.760;2023-01-04T14:44:20;96663.66;;;5.95;74.62
63019;BME280;49105;46.046;10.760;2023-01-04T14:46:51;96668.50;;;5.98;74.29
63019;BME280;49105;46.046;10.760;2023-01-04T14:49:18;96678.22;;;5.97;74.31
63019;BME280;49105;46.046;10.760;2023-01-04T14:51:52;96675.41;;;5.92;74.38
63019;BME280;49105;46.046;10.760;2023-01-04T14:54:19;96667.56;;;5.86;74.25
63019;BME280;49105;46.046;10.760;2023-01-04T14:56:44;96677.56;;;5.77;74.78
63019;BME280;49105;46.046;10.760;2023-01-04T14:59:10;96676.81;;;5.70;74.67